sensor_id;sensor_type;location;lat;lon;timestamp;P1;durP1;ratioP1;P2;durP2;ratioP2
15480;SDS011;7842;50.904;6.670;2022-10-31T00:02:04;9.83;;;6.90;;
15480;SDS011;7842;50.904;6.670;2022-10-31T00:04:30;10.30;;;7.33;;
15480;SDS011;7842;50.904;6.670;2022-10-31T00:06:56;9.53;;;6.80;;
15480;SDS011;7842;50.904;6.670;2022-10-31T00:09:21;10.20;;;7.03;;
15480;SDS011;7842;50.904;6.670;2022-10-31T00:11:47;11.07;;;7.20;;
15480;SDS011;7842;50.904;6.670;2022-10-31T00:14:13;9.80;;;6.70;;
15480;SDS011;7842;50.904;6.670;2022-10-31T00:16:38;10.17;;;6.40;;
15480;SDS011;7842;50.904;6.670;2022-10-31T00:19:06;9.45;;;6.43;;
15480;SDS011;7842;50.904;6.670;2022-10-31T00:21:32;9.35;;;6.40;;
15480;SDS011;7842;50.904;6.670;2022-10-31T00:23:58;9.80;;;6.40;;
15480;SDS011;7842;50.904;6.670;2022-10-31T00:26:25;10.75;;;6.47;;
15480;SDS011;7842;50.904;6.670;2022-10-31T00:28:52;9.27;;;6.32;;
15480;SDS011;7842;50.904;6.670;2022-10-31T00:31:18;9.33;;;6.80;;
15480;SDS011;7842;50.904;6.670;2022-10-31T00:33:44;11.40;;;7.15;;
15480;SDS011;7842;50.904;6.670;2022-10-31T00:36:14;10.35;;;7.25;;
15480;SDS011;7842;50.904;6.670;2022-10-31T00:38:41;11.25;;;7.22;;
15480;SDS011;7842;50.904;6.670;2022-10-31T00:41:08;10.98;;;6.95;;
15480;SDS011;7842;50.904;6.670;2022-10-31T00:43:38;11.32;;;7.57;;
15480;SDS011;7842;50.904;6.670;2022-10-31T00:46:04;11.82;;;7.38;;
15480;SDS011;7842;50.904;6.670;2022-10-31T00:48:29;13.73;;;7.93;;
15480;SDS011;7842;50.904;6.670;2022-10-31T00:50:55;10.73;;;7.85;;
15480;SDS011;7842;50.904;6.670;2022-10-31T00:53:21;12.45;;;8.00;;
15480;SDS011;7842;50.904;6.670;2022-10-31T00:55:47;12.17;;;8.20;;
15480;SDS011;7842;50.904;6.670;2022-10-31T00:58:13;10.43;;;8.13;;
15480;SDS011;7842;50.904;6.670;2022-10-31T01:00:38;11.68;;;7.70;;
15480;SDS011;7842;50.904;6.670;2022-10-31T01:03:04;11.10;;;7.30;;
15480;SDS011;7842;50.904;6.670;2022-10-31T01:05:30;11.87;;;7.40;;
15480;SDS011;7842;50.904;6.670;2022-10-31T01:07:55;11.63;;;7.67;;
15480;SDS011;7842;50.904;6.670;2022-10-31T01:10:21;11.43;;;6.80;;
15480;SDS011;7842;50.904;6.670;2022-10-31T01:12:47;10.07;;;7.40;;
15480;SDS011;7842;50.904;6.670;2022-10-31T01:15:18;11.65;;;7.63;;
15480;SDS011;7842;50.904;6.670;2022-10-31T01:17:45;9.02;;;6.45;;
15480;SDS011;7842;50.904;6.670;2022-10-31T01:20:12;10.60;;;7.00;;
15480;SDS011;7842;50.904;6.670;2022-10-31T01:22:39;11.80;;;7.15;;
15480;SDS011;7842;50.904;6.670;2022-10-31T01:25:04;10.43;;;7.05;;
15480;SDS011;7842;50.904;6.670;2022-10-31T01:27:31;12.35;;;7.57;;
15480;SDS011;7842;50.904;6.670;2022-10-31T01:29:57;9.68;;;6.72;;
15480;SDS011;7842;50.904;6.670;2022-10-31T01:32:23;9.32;;;7.00;;
15480;SDS011;7842;50.904;6.670;2022-10-31T01:34:49;12.18;;;7.63;;
15480;SDS011;7842;50.904;6.670;2022-10-31T01:37:14;10.95;;;6.65;;
15480;SDS011;7842;50.904;6.670;2022-10-31T01:39:40;8.23;;;6.63;;
15480;SDS011;7842;50.904;6.670;2022-10-31T01:42:06;9.43;;;6.40;;
15480;SDS011;7842;50.904;6.670;2022-10-31T01:46:59;9.67;;;6.80;;
15480;SDS011;7842;50.904;6.670;2022-10-31T01:49:46;10.35;;;6.40;;
15480;SDS011;7842;50.904;6.670;2022-10-31T01:52:24;11.18;;;6.57;;
15480;SDS011;7842;50.904;6.670;2022-10-31T01:55:04;10.90;;;7.25;;
15480;SDS011;7842;50.904;6.670;2022-10-31T01:57:32;9.40;;;7.07;;
15480;SDS011;7842;50.904;6.670;2022-10-31T02:00:01;10.65;;;6.65;;
15480;SDS011;7842;50.904;6.670;2022-10-31T02:02:31;10.30;;;7.50;;
15480;SDS011;7842;50.904;6.670;2022-10-31T02:04:57;9.63;;;6.57;;
15480;SDS011;7842;50.904;6.670;2022-10-31T02:07:34;9.80;;;6.50;;
15480;SDS011;7842;50.904;6.670;2022-10-31T02:10:04;9.98;;;6.65;;
15480;SDS011;7842;50.904;6.670;2022-10-31T02:12:30;9.83;;;6.87;;
15480;SDS011;7842;50.904;6.670;2022-10-31T02:14:58;8.50;;;6.85;;
15480;SDS011;7842;50.904;6.670;2022-10-31T02:17:24;11.18;;;7.03;;
15480;SDS011;7842;50.904;6.670;2022-10-31T02:23:13;10.60;;;6.90;;
15480;SDS011;7842;50.904;6.670;2022-10-31T02:33:38;9.40;;;6.90;;
15480;SDS011;7842;50.904;6.670;2022-10-31T02:36:07;9.75;;;6.93;;
15480;SDS011;7842;50.904;6.670;2022-10-31T02:41:46;9.88;;;6.80;;
15480;SDS011;7842;50.904;6.670;2022-10-31T02:47:16;9.38;;;7.05;;
15480;SDS011;7842;50.904;6.670;2022-10-31T02:49:45;10.85;;;6.65;;
15480;SDS011;7842;50.904;6.670;2022-10-31T02:52:19;10.07;;;6.93;;
15480;SDS011;7842;50.904;6.670;2022-10-31T02:54:50;11.82;;;7.32;;
15480;SDS011;7842;50.904;6.670;2022-10-31T02:57:17;9.73;;;7.27;;
15480;SDS011;7842;50.904;6.670;2022-10-31T02:59:51;9.07;;;7.10;;
15480;SDS011;7842;50.904;6.670;2022-10-31T03:05:04;10.15;;;7.13;;
15480;SDS011;7842;50.904;6.670;2022-10-31T03:07:51;10.15;;;6.85;;
15480;SDS011;7842;50.904;6.670;2022-10-31T03:13:10;8.60;;;6.80;;
15480;SDS011;7842;50.904;6.670;2022-10-31T03:15:47;11.75;;;7.38;;
15480;SDS011;7842;50.904;6.670;2022-10-31T03:18:21;11.60;;;7.30;;
15480;SDS011;7842;50.904;6.670;2022-10-31T03:20:59;11.50;;;7.43;;
15480;SDS011;7842;50.904;6.670;2022-10-31T03:23:32;14.35;;;7.60;;
15480;SDS011;7842;50.904;6.670;2022-10-31T03:26:02;12.18;;;7.38;;
15480;SDS011;7842;50.904;6.670;2022-10-31T03:28:30;10.48;;;7.88;;
15480;SDS011;7842;50.904;6.670;2022-10-31T03:31:14;10.20;;;7.10;;
15480;SDS011;7842;50.904;6.670;2022-10-31T03:33:43;10.60;;;7.43;;
15480;SDS011;7842;50.904;6.670;2022-10-31T03:36:11;10.65;;;7.30;;
15480;SDS011;7842;50.904;6.670;2022-10-31T03:38:40;11.95;;;7.47;;
15480;SDS011;7842;50.904;6.670;2022-10-31T03:41:09;10.35;;;7.00;;
15480;SDS011;7842;50.904;6.670;2022-10-31T03:43:40;10.13;;;7.20;;
15480;SDS011;7842;50.904;6.670;2022-10-31T03:46:11;11.18;;;7.35;;
15480;SDS011;7842;50.904;6.670;2022-10-31T03:48:36;10.30;;;7.50;;
15480;SDS011;7842;50.904;6.670;2022-10-31T03:51:16;11.80;;;7.60;;
15480;SDS011;7842;50.904;6.670;2022-10-31T03:53:56;13.00;;;7.72;;
15480;SDS011;7842;50.904;6.670;2022-10-31T03:56:37;11.98;;;7.45;;
15480;SDS011;7842;50.904;6.670;2022-10-31T03:59:09;11.05;;;7.28;;
15480;SDS011;7842;50.904;6.670;2022-10-31T04:01:44;11.10;;;7.43;;
15480;SDS011;7842;50.904;6.670;2022-10-31T04:04:14;10.75;;;7.43;;
15480;SDS011;7842;50.904;6.670;2022-10-31T04:06:40;9.93;;;6.83;;
15480;SDS011;7842;50.904;6.670;2022-10-31T04:09:08;11.57;;;7.20;;
15480;SDS011;7842;50.904;6.670;2022-10-31T04:11:40;10.10;;;7.07;;
15480;SDS011;7842;50.904;6.670;2022-10-31T04:14:10;11.93;;;7.10;;
15480;SDS011;7842;50.904;6.670;2022-10-31T04:16:37;11.95;;;7.13;;
15480;SDS011;7842;50.904;6.670;2022-10-31T04:19:06;11.73;;;7.35;;
15480;SDS011;7842;50.904;6.670;2022-10-31T04:21:32;10.75;;;7.57;;
15480;SDS011;7842;50.904;6.670;2022-10-31T04:23:58;11.23;;;7.03;;
15480;SDS011;7842;50.904;6.670;2022-10-31T04:26:23;10.40;;;7.20;;
15480;SDS011;7842;50.904;6.670;2022-10-31T04:28:49;11.60;;;7.45;;
15480;SDS011;7842;50.904;6.670;2022-10-31T04:31:14;10.00;;;6.82;;
15480;SDS011;7842;50.904;6.670;2022-10-31T04:33:40;10.00;;;7.23;;
15480;SDS011;7842;50.904;6.670;2022-10-31T04:36:06;9.77;;;7.30;;
15480;SDS011;7842;50.904;6.670;2022-10-31T04:38:32;9.30;;;7.13;;
15480;SDS011;7842;50.904;6.670;2022-10-31T04:40:58;12.70;;;8.27;;
15480;SDS011;7842;50.904;6.670;2022-10-31T04:43:23;10.63;;;7.93;;
15480;SDS011;7842;50.904;6.670;2022-10-31T04:45:49;10.88;;;7.53;;
15480;SDS011;7842;50.904;6.670;2022-10-31T04:48:15;9.60;;;7.53;;
15480;SDS011;7842;50.904;6.670;2022-10-31T04:50:40;11.93;;;7.73;;
15480;SDS011;7842;50.904;6.670;2022-10-31T04:53:07;11.30;;;8.00;;
15480;SDS011;7842;50.904;6.670;2022-10-31T04:55:33;10.57;;;7.35;;
15480;SDS011;7842;50.904;6.670;2022-10-31T04:57:59;13.27;;;7.55;;
15480;SDS011;7842;50.904;6.670;2022-10-31T05:00:25;11.77;;;7.55;;
15480;SDS011;7842;50.904;6.670;2022-10-31T05:02:54;12.07;;;7.70;;
15480;SDS011;7842;50.904;6.670;2022-10-31T05:05:22;13.55;;;7.82;;
15480;SDS011;7842;50.904;6.670;2022-10-31T05:07:49;11.07;;;7.78;;
15480;SDS011;7842;50.904;6.670;2022-10-31T05:10:19;10.77;;;7.40;;
15480;SDS011;7842;50.904;6.670;2022-10-31T05:12:47;11.25;;;7.85;;
15480;SDS011;7842;50.904;6.670;2022-10-31T05:15:15;11.23;;;7.40;;
15480;SDS011;7842;50.904;6.670;2022-10-31T05:17:41;11.90;;;8.13;;
15480;SDS011;7842;50.904;6.670;2022-10-31T05:20:07;10.85;;;7.38;;
15480;SDS011;7842;50.904;6.670;2022-10-31T05:22:34;13.90;;;8.07;;
15480;SDS011;7842;50.904;6.670;2022-10-31T05:24:59;12.37;;;7.83;;
15480;SDS011;7842;50.904;6.670;2022-10-31T05:27:25;10.80;;;7.60;;
15480;SDS011;7842;50.904;6.670;2022-10-31T05:29:50;11.65;;;8.00;;
15480;SDS011;7842;50.904;6.670;2022-10-31T05:32:16;11.73;;;7.60;;
15480;SDS011;7842;50.904;6.670;2022-10-31T05:34:41;12.30;;;8.00;;
15480;SDS011;7842;50.904;6.670;2022-10-31T05:37:07;12.15;;;8.18;;
15480;SDS011;7842;50.904;6.670;2022-10-31T05:39:33;13.83;;;8.43;;
15480;SDS011;7842;50.904;6.670;2022-10-31T05:41:58;11.23;;;8.23;;
15480;SDS011;7842;50.904;6.670;2022-10-31T05:44:24;13.05;;;8.40;;
15480;SDS011;7842;50.904;6.670;2022-10-31T05:46:49;12.77;;;7.80;;
15480;SDS011;7842;50.904;6.670;2022-10-31T05:49:15;11.33;;;7.90;;
15480;SDS011;7842;50.904;6.670;2022-10-31T05:51:42;11.35;;;8.48;;
15480;SDS011;7842;50.904;6.670;2022-10-31T05:54:07;12.40;;;8.00;;
15480;SDS011;7842;50.904;6.670;2022-10-31T05:56:33;11.00;;;8.07;;
15480;SDS011;7842;50.904;6.670;2022-10-31T05:58:59;11.20;;;7.97;;
15480;SDS011;7842;50.904;6.670;2022-10-31T06:01:24;11.07;;;7.70;;
15480;SDS011;7842;50.904;6.670;2022-10-31T06:03:50;9.88;;;7.68;;
15480;SDS011;7842;50.904;6.670;2022-10-31T06:06:15;12.23;;;7.93;;
15480;SDS011;7842;50.904;6.670;2022-10-31T06:08:41;13.47;;;8.37;;
15480;SDS011;7842;50.904;6.670;2022-10-31T06:11:06;10.70;;;7.83;;
15480;SDS011;7842;50.904;6.670;2022-10-31T06:13:32;13.05;;;8.38;;
15480;SDS011;7842;50.904;6.670;2022-10-31T06:15:58;13.47;;;8.50;;
15480;SDS011;7842;50.904;6.670;2022-10-31T06:18:23;13.13;;;8.87;;
15480;SDS011;7842;50.904;6.670;2022-10-31T06:20:49;13.10;;;8.68;;
15480;SDS011;7842;50.904;6.670;2022-10-31T06:23:15;11.77;;;8.48;;
15480;SDS011;7842;50.904;6.670;2022-10-31T06:25:41;12.35;;;8.75;;
15480;SDS011;7842;50.904;6.670;2022-10-31T06:28:06;14.05;;;8.98;;
15480;SDS011;7842;50.904;6.670;2022-10-31T06:30:32;12.35;;;8.35;;
15480;SDS011;7842;50.904;6.670;2022-10-31T06:33:01;12.50;;;8.73;;
15480;SDS011;7842;50.904;6.670;2022-10-31T06:35:28;12.30;;;8.25;;
15480;SDS011;7842;50.904;6.670;2022-10-31T06:37:54;12.45;;;8.63;;
15480;SDS011;7842;50.904;6.670;2022-10-31T06:40:20;11.20;;;8.30;;
15480;SDS011;7842;50.904;6.670;2022-10-31T06:42:45;14.15;;;8.60;;
15480;SDS011;7842;50.904;6.670;2022-10-31T06:45:11;11.50;;;8.63;;
15480;SDS011;7842;50.904;6.670;2022-10-31T06:47:37;14.10;;;8.93;;
15480;SDS011;7842;50.904;6.670;2022-10-31T06:50:02;12.67;;;9.17;;
15480;SDS011;7842;50.904;6.670;2022-10-31T06:52:28;12.82;;;8.50;;
15480;SDS011;7842;50.904;6.670;2022-10-31T06:54:54;12.63;;;9.32;;
15480;SDS011;7842;50.904;6.670;2022-10-31T06:57:19;13.03;;;9.20;;
15480;SDS011;7842;50.904;6.670;2022-10-31T06:59:45;12.53;;;8.93;;
15480;SDS011;7842;50.904;6.670;2022-10-31T07:02:11;16.08;;;9.32;;
15480;SDS011;7842;50.904;6.670;2022-10-31T07:04:37;16.23;;;9.48;;
15480;SDS011;7842;50.904;6.670;2022-10-31T07:07:03;12.25;;;8.25;;
15480;SDS011;7842;50.904;6.670;2022-10-31T07:09:29;12.60;;;8.73;;
15480;SDS011;7842;50.904;6.670;2022-10-31T07:11:54;15.35;;;8.68;;
15480;SDS011;7842;50.904;6.670;2022-10-31T07:14:20;15.93;;;9.23;;
15480;SDS011;7842;50.904;6.670;2022-10-31T07:16:49;13.70;;;8.45;;
15480;SDS011;7842;50.904;6.670;2022-10-31T07:19:18;12.60;;;8.30;;
15480;SDS011;7842;50.904;6.670;2022-10-31T07:21:44;12.50;;;8.80;;
15480;SDS011;7842;50.904;6.670;2022-10-31T07:24:09;13.45;;;9.20;;
15480;SDS011;7842;50.904;6.670;2022-10-31T07:26:35;13.27;;;8.50;;
15480;SDS011;7842;50.904;6.670;2022-10-31T07:29:00;14.60;;;9.30;;
15480;SDS011;7842;50.904;6.670;2022-10-31T07:31:26;12.85;;;9.48;;
15480;SDS011;7842;50.904;6.670;2022-10-31T07:33:51;13.73;;;9.37;;
15480;SDS011;7842;50.904;6.670;2022-10-31T07:36:17;11.93;;;9.10;;
15480;SDS011;7842;50.904;6.670;2022-10-31T07:38:42;14.75;;;9.15;;
15480;SDS011;7842;50.904;6.670;2022-10-31T07:41:08;13.40;;;8.90;;
15480;SDS011;7842;50.904;6.670;2022-10-31T07:43:34;12.77;;;8.75;;
15480;SDS011;7842;50.904;6.670;2022-10-31T07:46:00;15.23;;;10.03;;
15480;SDS011;7842;50.904;6.670;2022-10-31T07:48:25;14.97;;;9.50;;
15480;SDS011;7842;50.904;6.670;2022-10-31T07:50:51;16.40;;;10.23;;
15480;SDS011;7842;50.904;6.670;2022-10-31T07:53:19;15.25;;;9.40;;
15480;SDS011;7842;50.904;6.670;2022-10-31T07:55:45;14.25;;;9.02;;
15480;SDS011;7842;50.904;6.670;2022-10-31T07:58:12;13.45;;;9.27;;
15480;SDS011;7842;50.904;6.670;2022-10-31T08:00:40;13.80;;;9.32;;
15480;SDS011;7842;50.904;6.670;2022-10-31T08:03:09;14.77;;;9.27;;
15480;SDS011;7842;50.904;6.670;2022-10-31T08:05:36;16.85;;;9.43;;
15480;SDS011;7842;50.904;6.670;2022-10-31T08:08:05;17.53;;;9.60;;
15480;SDS011;7842;50.904;6.670;2022-10-31T08:10:33;15.32;;;9.35;;
15480;SDS011;7842;50.904;6.670;2022-10-31T08:13:01;15.43;;;9.63;;
15480;SDS011;7842;50.904;6.670;2022-10-31T08:15:35;13.43;;;9.30;;
15480;SDS011;7842;50.904;6.670;2022-10-31T08:18:04;14.63;;;9.77;;
15480;SDS011;7842;50.904;6.670;2022-10-31T08:20:31;14.27;;;9.73;;
15480;SDS011;7842;50.904;6.670;2022-10-31T08:23:01;16.73;;;10.27;;
15480;SDS011;7842;50.904;6.670;2022-10-31T08:25:29;15.82;;;10.50;;
15480;SDS011;7842;50.904;6.670;2022-10-31T08:27:57;16.83;;;11.43;;
15480;SDS011;7842;50.904;6.670;2022-10-31T08:30:27;21.02;;;13.90;;
15480;SDS011;7842;50.904;6.670;2022-10-31T08:33:01;18.35;;;12.82;;
15480;SDS011;7842;50.904;6.670;2022-10-31T08:35:28;20.30;;;12.55;;
15480;SDS011;7842;50.904;6.670;2022-10-31T08:37:54;20.65;;;12.77;;
15480;SDS011;7842;50.904;6.670;2022-10-31T08:40:23;20.95;;;13.45;;
15480;SDS011;7842;50.904;6.670;2022-10-31T08:42:56;19.33;;;13.17;;
15480;SDS011;7842;50.904;6.670;2022-10-31T08:45:32;19.90;;;13.27;;
15480;SDS011;7842;50.904;6.670;2022-10-31T08:47:59;21.63;;;14.15;;
15480;SDS011;7842;50.904;6.670;2022-10-31T08:50:26;21.88;;;14.93;;
15480;SDS011;7842;50.904;6.670;2022-10-31T08:53:01;21.92;;;16.63;;
15480;SDS011;7842;50.904;6.670;2022-10-31T08:55:27;25.55;;;17.70;;
15480;SDS011;7842;50.904;6.670;2022-10-31T08:57:56;28.88;;;18.45;;
15480;SDS011;7842;50.904;6.670;2022-10-31T09:00:23;29.42;;;19.75;;
15480;SDS011;7842;50.904;6.670;2022-10-31T09:02:59;29.23;;;18.90;;
15480;SDS011;7842;50.904;6.670;2022-10-31T09:05:27;30.38;;;19.27;;
15480;SDS011;7842;50.904;6.670;2022-10-31T09:07:56;33.47;;;22.23;;
15480;SDS011;7842;50.904;6.670;2022-10-31T09:10:23;31.73;;;20.98;;
15480;SDS011;7842;50.904;6.670;2022-10-31T09:13:02;35.35;;;22.75;;
15480;SDS011;7842;50.904;6.670;2022-10-31T09:15:35;31.87;;;22.40;;
15480;SDS011;7842;50.904;6.670;2022-10-31T09:18:03;33.08;;;21.38;;
15480;SDS011;7842;50.904;6.670;2022-10-31T09:20:30;31.00;;;21.48;;
15480;SDS011;7842;50.904;6.670;2022-10-31T09:22:58;32.07;;;22.43;;
15480;SDS011;7842;50.904;6.670;2022-10-31T09:25:25;32.95;;;21.65;;
15480;SDS011;7842;50.904;6.670;2022-10-31T09:27:55;32.77;;;23.07;;
15480;SDS011;7842;50.904;6.670;2022-10-31T09:30:25;37.35;;;26.13;;
15480;SDS011;7842;50.904;6.670;2022-10-31T09:32:55;42.88;;;29.35;;
15480;SDS011;7842;50.904;6.670;2022-10-31T09:35:22;43.60;;;29.23;;
15480;SDS011;7842;50.904;6.670;2022-10-31T09:38:02;38.42;;;28.15;;
15480;SDS011;7842;50.904;6.670;2022-10-31T09:40:43;36.13;;;25.35;;
15480;SDS011;7842;50.904;6.670;2022-10-31T09:46:25;28.95;;;21.13;;
15480;SDS011;7842;50.904;6.670;2022-10-31T09:51:54;24.45;;;17.67;;
15480;SDS011;7842;50.904;6.670;2022-10-31T09:54:49;24.77;;;18.63;;
15480;SDS011;7842;50.904;6.670;2022-10-31T09:57:28;29.52;;;20.65;;
15480;SDS011;7842;50.904;6.670;2022-10-31T09:59:57;27.90;;;19.15;;
15480;SDS011;7842;50.904;6.670;2022-10-31T10:02:32;25.13;;;17.67;;
15480;SDS011;7842;50.904;6.670;2022-10-31T10:05:04;21.20;;;15.48;;
15480;SDS011;7842;50.904;6.670;2022-10-31T10:18:47;22.63;;;13.13;;
15480;SDS011;7842;50.904;6.670;2022-10-31T10:24:07;19.77;;;12.90;;
15480;SDS011;7842;50.904;6.670;2022-10-31T10:26:50;21.55;;;13.07;;
15480;SDS011;7842;50.904;6.670;2022-10-31T10:29:34;17.85;;;12.57;;
15480;SDS011;7842;50.904;6.670;2022-10-31T10:32:09;18.58;;;12.55;;
15480;SDS011;7842;50.904;6.670;2022-10-31T10:34:47;16.17;;;11.00;;
15480;SDS011;7842;50.904;6.670;2022-10-31T10:37:20;15.35;;;9.40;;
15480;SDS011;7842;50.904;6.670;2022-10-31T10:40:18;13.43;;;9.30;;
15480;SDS011;7842;50.904;6.670;2022-10-31T10:51:59;14.82;;;10.50;;
15480;SDS011;7842;50.904;6.670;2022-10-31T10:59:43;19.58;;;11.90;;
15480;SDS011;7842;50.904;6.670;2022-10-31T11:02:15;15.65;;;10.60;;
15480;SDS011;7842;50.904;6.670;2022-10-31T11:04:43;13.85;;;8.18;;
15480;SDS011;7842;50.904;6.670;2022-10-31T11:07:13;11.68;;;7.55;;
15480;SDS011;7842;50.904;6.670;2022-10-31T11:09:39;14.20;;;7.85;;
15480;SDS011;7842;50.904;6.670;2022-10-31T11:12:06;11.33;;;8.00;;
15480;SDS011;7842;50.904;6.670;2022-10-31T11:14:35;11.05;;;7.65;;
15480;SDS011;7842;50.904;6.670;2022-10-31T11:17:11;11.00;;;7.50;;
15480;SDS011;7842;50.904;6.670;2022-10-31T11:19:45;13.57;;;7.63;;
15480;SDS011;7842;50.904;6.670;2022-10-31T11:22:14;13.75;;;7.95;;
15480;SDS011;7842;50.904;6.670;2022-10-31T11:24:43;12.43;;;7.73;;
15480;SDS011;7842;50.904;6.670;2022-10-31T11:27:29;12.67;;;7.73;;
15480;SDS011;7842;50.904;6.670;2022-10-31T11:30:03;11.37;;;7.80;;
15480;SDS011;7842;50.904;6.670;2022-10-31T11:32:30;15.70;;;8.67;;
15480;SDS011;7842;50.904;6.670;2022-10-31T11:34:58;10.13;;;7.43;;
15480;SDS011;7842;50.904;6.670;2022-10-31T11:37:27;11.13;;;7.70;;
15480;SDS011;7842;50.904;6.670;2022-10-31T11:40:02;12.93;;;7.95;;
15480;SDS011;7842;50.904;6.670;2022-10-31T11:42:48;13.50;;;8.73;;
15480;SDS011;7842;50.904;6.670;2022-10-31T11:45:34;11.68;;;8.05;;
15480;SDS011;7842;50.904;6.670;2022-10-31T11:48:02;12.98;;;8.48;;
15480;SDS011;7842;50.904;6.670;2022-10-31T11:50:40;13.85;;;8.90;;
15480;SDS011;7842;50.904;6.670;2022-10-31T11:53:12;14.95;;;8.77;;
15480;SDS011;7842;50.904;6.670;2022-10-31T11:56:03;13.27;;;8.88;;
15480;SDS011;7842;50.904;6.670;2022-10-31T11:58:39;13.10;;;8.80;;
15480;SDS011;7842;50.904;6.670;2022-10-31T12:01:05;12.53;;;8.83;;
15480;SDS011;7842;50.904;6.670;2022-10-31T12:03:51;13.77;;;9.10;;
15480;SDS011;7842;50.904;6.670;2022-10-31T12:06:28;13.07;;;8.25;;
15480;SDS011;7842;50.904;6.670;2022-10-31T12:08:58;13.98;;;9.00;;
15480;SDS011;7842;50.904;6.670;2022-10-31T12:11:46;13.82;;;8.40;;
15480;SDS011;7842;50.904;6.670;2022-10-31T12:17:02;13.48;;;8.45;;
15480;SDS011;7842;50.904;6.670;2022-10-31T12:28:21;13.55;;;9.73;;
15480;SDS011;7842;50.904;6.670;2022-10-31T12:31:13;15.80;;;10.18;;
15480;SDS011;7842;50.904;6.670;2022-10-31T12:42:10;13.48;;;8.10;;
15480;SDS011;7842;50.904;6.670;2022-10-31T12:45:03;12.40;;;7.78;;
15480;SDS011;7842;50.904;6.670;2022-10-31T12:50:31;12.95;;;7.50;;
15480;SDS011;7842;50.904;6.670;2022-10-31T13:04:53;12.13;;;6.45;;
15480;SDS011;7842;50.904;6.670;2022-10-31T13:07:30;13.00;;;7.28;;
15480;SDS011;7842;50.904;6.670;2022-10-31T13:10:19;9.27;;;6.38;;
15480;SDS011;7842;50.904;6.670;2022-10-31T13:12:53;10.98;;;6.90;;
15480;SDS011;7842;50.904;6.670;2022-10-31T13:15:26;11.85;;;6.22;;
15480;SDS011;7842;50.904;6.670;2022-10-31T13:17:59;11.68;;;6.47;;
15480;SDS011;7842;50.904;6.670;2022-10-31T13:20:30;8.90;;;5.90;;
15480;SDS011;7842;50.904;6.670;2022-10-31T13:23:09;9.32;;;5.80;;
15480;SDS011;7842;50.904;6.670;2022-10-31T13:25:40;10.65;;;6.40;;
15480;SDS011;7842;50.904;6.670;2022-10-31T13:28:45;10.30;;;6.20;;
15480;SDS011;7842;50.904;6.670;2022-10-31T13:31:02;11.20;;;6.38;;
15480;SDS011;7842;50.904;6.670;2022-10-31T13:38:54;13.05;;;7.18;;
15480;SDS011;7842;50.904;6.670;2022-10-31T13:41:29;12.80;;;7.67;;
15480;SDS011;7842;50.904;6.670;2022-10-31T13:44:13;15.13;;;8.13;;
15480;SDS011;7842;50.904;6.670;2022-10-31T13:46:40;12.60;;;7.43;;
15480;SDS011;7842;50.904;6.670;2022-10-31T13:51:51;11.93;;;6.80;;
15480;SDS011;7842;50.904;6.670;2022-10-31T13:54:21;10.68;;;6.28;;
15480;SDS011;7842;50.904;6.670;2022-10-31T13:56:58;9.70;;;6.28;;
15480;SDS011;7842;50.904;6.670;2022-10-31T13:59:25;10.90;;;6.40;;
15480;SDS011;7842;50.904;6.670;2022-10-31T14:01:53;10.73;;;6.33;;
15480;SDS011;7842;50.904;6.670;2022-10-31T14:04:22;10.65;;;6.28;;
15480;SDS011;7842;50.904;6.670;2022-10-31T14:09:39;9.57;;;5.82;;
15480;SDS011;7842;50.904;6.670;2022-10-31T14:17:56;8.00;;;5.47;;
15480;SDS011;7842;50.904;6.670;2022-10-31T14:28:45;12.20;;;6.85;;
15480;SDS011;7842;50.904;6.670;2022-10-31T14:34:21;15.27;;;7.70;;
15480;SDS011;7842;50.904;6.670;2022-10-31T14:39:52;9.13;;;6.25;;
15480;SDS011;7842;50.904;6.670;2022-10-31T14:45:14;11.48;;;7.15;;
15480;SDS011;7842;50.904;6.670;2022-10-31T14:51:14;8.48;;;5.40;;
15480;SDS011;7842;50.904;6.670;2022-10-31T14:53:47;10.27;;;5.60;;
15480;SDS011;7842;50.904;6.670;2022-10-31T14:56:29;8.77;;;5.40;;
15480;SDS011;7842;50.904;6.670;2022-10-31T14:58:57;9.32;;;5.50;;
15480;SDS011;7842;50.904;6.670;2022-10-31T15:01:30;12.90;;;5.25;;
15480;SDS011;7842;50.904;6.670;2022-10-31T15:04:18;10.30;;;5.38;;
15480;SDS011;7842;50.904;6.670;2022-10-31T15:06:48;10.57;;;4.97;;
15480;SDS011;7842;50.904;6.670;2022-10-31T15:09:25;10.30;;;5.57;;
15480;SDS011;7842;50.904;6.670;2022-10-31T15:11:52;8.75;;;4.80;;
15480;SDS011;7842;50.904;6.670;2022-10-31T15:14:22;9.75;;;5.05;;
15480;SDS011;7842;50.904;6.670;2022-10-31T15:16:48;8.50;;;5.35;;
15480;SDS011;7842;50.904;6.670;2022-10-31T15:19:15;8.20;;;4.90;;
15480;SDS011;7842;50.904;6.670;2022-10-31T15:21:45;9.05;;;5.25;;
15480;SDS011;7842;50.904;6.670;2022-10-31T15:24:12;7.27;;;4.87;;
15480;SDS011;7842;50.904;6.670;2022-10-31T15:26:48;10.07;;;4.88;;
15480;SDS011;7842;50.904;6.670;2022-10-31T15:29:20;9.90;;;4.80;;
15480;SDS011;7842;50.904;6.670;2022-10-31T15:36:54;10.52;;;4.93;;
15480;SDS011;7842;50.904;6.670;2022-10-31T15:39:20;8.97;;;4.77;;
15480;SDS011;7842;50.904;6.670;2022-10-31T15:41:50;8.93;;;5.00;;
15480;SDS011;7842;50.904;6.670;2022-10-31T15:44:25;8.70;;;4.70;;
15480;SDS011;7842;50.904;6.670;2022-10-31T15:46:54;9.60;;;4.88;;
15480;SDS011;7842;50.904;6.670;2022-10-31T15:52:16;8.43;;;5.07;;
15480;SDS011;7842;50.904;6.670;2022-10-31T15:54:53;7.97;;;4.78;;
15480;SDS011;7842;50.904;6.670;2022-10-31T15:57:21;7.47;;;4.90;;
15480;SDS011;7842;50.904;6.670;2022-10-31T15:59:48;8.53;;;4.97;;
15480;SDS011;7842;50.904;6.670;2022-10-31T16:02:17;7.00;;;4.78;;
15480;SDS011;7842;50.904;6.670;2022-10-31T16:04:55;8.38;;;4.63;;
15480;SDS011;7842;50.904;6.670;2022-10-31T16:07:23;10.32;;;5.07;;
15480;SDS011;7842;50.904;6.670;2022-10-31T16:09:56;8.85;;;4.80;;
15480;SDS011;7842;50.904;6.670;2022-10-31T16:12:36;8.73;;;4.85;;
15480;SDS011;7842;50.904;6.670;2022-10-31T16:15:12;9.63;;;5.05;;
15480;SDS011;7842;50.904;6.670;2022-10-31T16:17:40;8.45;;;4.63;;
15480;SDS011;7842;50.904;6.670;2022-10-31T16:20:07;9.35;;;4.97;;
15480;SDS011;7842;50.904;6.670;2022-10-31T16:22:34;8.70;;;5.00;;
15480;SDS011;7842;50.904;6.670;2022-10-31T16:25:08;7.68;;;4.68;;
15480;SDS011;7842;50.904;6.670;2022-10-31T16:27:40;6.55;;;4.90;;
15480;SDS011;7842;50.904;6.670;2022-10-31T16:33:00;17.95;;;10.88;;
15480;SDS011;7842;50.904;6.670;2022-10-31T16:35:27;11.98;;;7.22;;
15480;SDS011;7842;50.904;6.670;2022-10-31T16:38:03;9.30;;;5.43;;
15480;SDS011;7842;50.904;6.670;2022-10-31T16:40:30;10.38;;;6.10;;
15480;SDS011;7842;50.904;6.670;2022-10-31T16:42:57;10.77;;;6.28;;
15480;SDS011;7842;50.904;6.670;2022-10-31T16:45:28;8.73;;;5.85;;
15480;SDS011;7842;50.904;6.670;2022-10-31T16:48:01;10.57;;;5.68;;
15480;SDS011;7842;50.904;6.670;2022-10-31T16:50:31;8.07;;;5.40;;
15480;SDS011;7842;50.904;6.670;2022-10-31T16:52:57;10.05;;;5.07;;
15480;SDS011;7842;50.904;6.670;2022-10-31T16:55:23;8.43;;;5.03;;
15480;SDS011;7842;50.904;6.670;2022-10-31T16:57:50;9.30;;;5.00;;
15480;SDS011;7842;50.904;6.670;2022-10-31T17:00:24;8.27;;;4.97;;
15480;SDS011;7842;50.904;6.670;2022-10-31T17:02:51;9.73;;;5.10;;
15480;SDS011;7842;50.904;6.670;2022-10-31T17:05:19;9.30;;;4.88;;
15480;SDS011;7842;50.904;6.670;2022-10-31T17:07:46;10.63;;;5.50;;
15480;SDS011;7842;50.904;6.670;2022-10-31T17:10:13;11.32;;;5.53;;
15480;SDS011;7842;50.904;6.670;2022-10-31T17:12:45;9.30;;;5.30;;
15480;SDS011;7842;50.904;6.670;2022-10-31T17:15:23;9.20;;;5.38;;
15480;SDS011;7842;50.904;6.670;2022-10-31T17:17:50;9.10;;;5.47;;
15480;SDS011;7842;50.904;6.670;2022-10-31T17:20:21;8.05;;;5.05;;
15480;SDS011;7842;50.904;6.670;2022-10-31T17:22:51;10.35;;;5.35;;
15480;SDS011;7842;50.904;6.670;2022-10-31T17:25:21;10.07;;;5.68;;
15480;SDS011;7842;50.904;6.670;2022-10-31T17:27:49;8.90;;;4.97;;